createdAt,value
2018-12-25T00:01:13.409Z,1.33
2018-12-25T00:03:40.570Z,1.30
2018-12-25T00:06:07.766Z,1.00
2018-12-25T00:08:34.923Z,1.07
2018-12-25T00:11:02.109Z,1.60
2018-12-25T00:13:29.271Z,1.10
2018-12-25T00:15:56.420Z,1.13
2018-12-25T00:18:23.614Z,1.20
2018-12-25T00:20:50.762Z,1.23
2018-12-25T00:23:17.931Z,1.20
2018-12-25T00:25:45.078Z,1.17
2018-12-25T00:28:12.249Z,1.30
2018-12-25T00:30:39.395Z,1.13
2018-12-25T00:33:06.559Z,1.53
2018-12-25T00:35:33.751Z,0.90
2018-12-25T00:38:00.981Z,0.97
2018-12-25T00:40:28.158Z,1.20
2018-12-25T00:42:55.327Z,1.10
2018-12-25T00:45:22.523Z,1.00
2018-12-25T00:47:49.681Z,0.90
2018-12-25T00:50:16.964Z,0.90
2018-12-25T00:52:44.202Z,0.90
2018-12-25T00:55:11.376Z,1.00
2018-12-25T00:57:38.574Z,1.10
2018-12-25T01:00:09.000Z,1.00
2018-12-25T01:02:36.174Z,0.90
2018-12-25T01:05:03.327Z,1.00
2018-12-25T01:07:30.493Z,1.10
2018-12-25T01:09:57.663Z,1.00
2018-12-25T01:12:24.822Z,0.90
2018-12-25T01:14:52.002Z,1.10
2018-12-25T01:17:19.170Z,1.30
2018-12-25T01:19:46.327Z,1.10
2018-12-25T01:22:13.647Z,1.30
2018-12-25T01:24:40.803Z,1.50
2018-12-25T01:27:07.974Z,1.07
2018-12-25T01:29:35.186Z,1.30
2018-12-25T01:32:02.350Z,1.00
2018-12-25T01:34:29.550Z,1.33
2018-12-25T01:36:56.704Z,1.20
2018-12-25T01:39:23.884Z,1.10
2018-12-25T01:41:51.049Z,0.90
2018-12-25T01:44:18.194Z,0.90
2018-12-25T01:46:45.356Z,1.00
2018-12-25T01:49:12.546Z,1.10
2018-12-25T01:51:39.716Z,1.00
2018-12-25T01:54:06.902Z,1.00
2018-12-25T01:56:34.061Z,1.30
2018-12-25T01:59:01.238Z,0.97
2018-12-25T02:01:28.426Z,1.30
2018-12-25T02:03:55.617Z,0.90
2018-12-25T02:06:22.810Z,0.90
2018-12-25T02:08:49.962Z,0.90
2018-12-25T02:11:17.142Z,0.90
2018-12-25T02:13:44.293Z,1.10
2018-12-25T02:16:11.496Z,1.10
2018-12-25T02:18:38.677Z,1.10
2018-12-25T02:21:05.842Z,1.30
2018-12-25T02:23:33.025Z,1.00
2018-12-25T02:26:00.218Z,1.30
2018-12-25T02:28:27.422Z,1.73
2018-12-25T02:30:54.587Z,1.30
2018-12-25T02:33:21.731Z,1.17
2018-12-25T02:35:48.898Z,1.10
2018-12-25T02:38:16.066Z,1.10
2018-12-25T02:40:43.238Z,1.30
2018-12-25T02:43:10.511Z,1.00
2018-12-25T02:45:37.678Z,1.30
2018-12-25T02:48:04.854Z,1.27
2018-12-25T02:50:32.011Z,1.87
2018-12-25T02:52:59.195Z,1.10
2018-12-25T02:55:26.354Z,1.40
2018-12-25T02:57:53.543Z,1.17
2018-12-25T03:00:20.718Z,1.03
2018-12-25T03:02:47.871Z,1.10
2018-12-25T03:05:15.043Z,1.30
2018-12-25T03:07:42.214Z,1.00
2018-12-25T03:10:09.425Z,1.40
2018-12-25T03:12:36.638Z,1.20
2018-12-25T03:15:05.533Z,1.13
2018-12-25T03:17:32.676Z,1.37
2018-12-25T03:20:00.234Z,1.90
2018-12-25T03:22:28.752Z,1.20
2018-12-25T03:24:55.934Z,1.13
2018-12-25T03:27:23.122Z,1.10
2018-12-25T03:29:50.300Z,1.37
2018-12-25T03:32:17.457Z,1.30
2018-12-25T03:34:44.601Z,1.10
2018-12-25T03:37:11.771Z,1.13
2018-12-25T03:39:38.951Z,1.03
2018-12-25T03:42:06.124Z,0.90
2018-12-25T03:44:33.295Z,1.00
2018-12-25T03:47:00.472Z,1.10
2018-12-25T03:49:27.621Z,1.37
2018-12-25T03:51:54.808Z,1.13
2018-12-25T03:54:21.983Z,1.30
2018-12-25T03:56:49.162Z,1.10
2018-12-25T03:59:18.631Z,1.17
2018-12-25T04:01:45.807Z,1.20
2018-12-25T04:04:12.993Z,2.00
2018-12-25T04:06:40.136Z,1.10
2018-12-25T04:09:07.318Z,1.30
2018-12-25T04:11:34.487Z,1.20
2018-12-25T04:14:01.678Z,1.30
2018-12-25T04:16:28.829Z,1.37
2018-12-25T04:18:56.010Z,1.60
2018-12-25T04:21:23.151Z,1.37
2018-12-25T04:23:50.335Z,1.23
2018-12-25T04:26:17.517Z,1.23
2018-12-25T04:28:44.686Z,1.40
2018-12-25T04:31:11.862Z,1.23
2018-12-25T04:33:39.008Z,1.73
2018-12-25T04:36:06.154Z,1.33
2018-12-25T04:38:33.318Z,1.20
2018-12-25T04:41:00.514Z,1.33
2018-12-25T04:43:27.684Z,1.43
2018-12-25T04:45:54.907Z,1.43
2018-12-25T04:48:22.102Z,1.40
2018-12-25T04:50:49.253Z,1.23
2018-12-25T04:53:16.445Z,1.30
2018-12-25T04:55:43.612Z,1.30
2018-12-25T04:58:10.805Z,1.90
2018-12-25T05:00:37.985Z,1.23
2018-12-25T05:03:05.229Z,1.30
2018-12-25T05:05:32.402Z,1.40
2018-12-25T05:07:59.599Z,1.70
2018-12-25T05:10:26.762Z,1.50
2018-12-25T05:12:53.967Z,1.20
2018-12-25T05:15:21.129Z,1.47
2018-12-25T05:17:48.286Z,1.60
2018-12-25T05:20:15.453Z,1.27
2018-12-25T05:22:42.611Z,1.53
2018-12-25T05:25:09.803Z,1.17
2018-12-25T05:27:37.022Z,1.40
2018-12-25T05:30:04.575Z,1.27
2018-12-25T05:32:31.748Z,2.97
2018-12-25T05:34:59.005Z,1.50
2018-12-25T05:37:26.171Z,2.20
2018-12-25T05:39:53.330Z,1.50
2018-12-25T05:42:20.509Z,1.50
2018-12-25T05:44:47.652Z,2.47
2018-12-25T05:47:14.842Z,2.00
2018-12-25T05:49:41.997Z,1.60
2018-12-25T05:52:09.185Z,1.40
2018-12-25T05:54:36.418Z,1.30
2018-12-25T05:57:03.622Z,2.03
2018-12-25T05:59:30.774Z,1.60
2018-12-25T06:01:57.949Z,1.30
2018-12-25T06:04:25.121Z,1.57
2018-12-25T06:06:52.278Z,1.40
2018-12-25T06:09:19.462Z,2.00
2018-12-25T06:11:46.607Z,1.63
2018-12-25T06:14:13.802Z,1.50
2018-12-25T06:16:40.943Z,1.63
2018-12-25T06:19:08.123Z,1.53
2018-12-25T06:21:35.271Z,2.07
2018-12-25T06:24:02.428Z,1.87
2018-12-25T06:26:29.606Z,1.47
2018-12-25T06:28:56.759Z,1.40
2018-12-25T06:31:23.939Z,1.57
2018-12-25T06:33:51.081Z,1.40
2018-12-25T06:36:18.256Z,1.40
2018-12-25T06:38:45.426Z,1.30
2018-12-25T06:41:12.614Z,1.37
2018-12-25T06:43:39.795Z,1.67
2018-12-25T06:46:06.975Z,1.50
2018-12-25T06:48:34.143Z,2.27
2018-12-25T06:51:04.053Z,1.40
2018-12-25T06:53:30.234Z,2.60
2018-12-25T06:55:57.402Z,1.70
2018-12-25T06:58:24.555Z,1.63
2018-12-25T07:00:51.722Z,1.60
2018-12-25T07:03:18.894Z,2.00
2018-12-25T07:05:46.059Z,1.40
2018-12-25T07:08:13.233Z,1.60
2018-12-25T07:10:40.399Z,1.70
2018-12-25T07:13:07.578Z,1.87
2018-12-25T07:15:34.744Z,1.70
2018-12-25T07:18:01.891Z,1.73
2018-12-25T07:20:29.067Z,2.03
2018-12-25T07:22:56.242Z,2.17
2018-12-25T07:25:23.424Z,1.93
2018-12-25T07:27:50.568Z,1.90
2018-12-25T07:30:17.747Z,2.63
2018-12-25T07:32:44.934Z,2.37
2018-12-25T07:35:12.094Z,2.20
2018-12-25T07:37:39.308Z,1.90
2018-12-25T07:40:06.489Z,1.80
2018-12-25T07:42:33.681Z,2.30
2018-12-25T07:45:00.830Z,3.27
2018-12-25T07:47:27.990Z,4.93
2018-12-25T07:49:55.162Z,2.13
2018-12-25T07:52:22.329Z,2.67
2018-12-25T07:54:49.514Z,2.30
2018-12-25T07:57:16.680Z,2.70
2018-12-25T07:59:43.823Z,2.50
2018-12-25T08:02:10.983Z,2.00
2018-12-25T08:04:38.142Z,2.33
2018-12-25T08:07:05.314Z,2.63
2018-12-25T08:09:32.504Z,2.60
2018-12-25T08:11:59.694Z,2.47
2018-12-25T08:14:26.894Z,2.47
2018-12-25T08:16:54.045Z,3.27
2018-12-25T08:19:21.193Z,2.20
2018-12-25T08:21:48.358Z,2.30
2018-12-25T08:24:15.512Z,2.30
2018-12-25T08:26:42.703Z,2.63
2018-12-25T08:29:09.887Z,4.33
2018-12-25T08:31:37.077Z,2.50
2018-12-25T08:34:04.317Z,2.80
2018-12-25T08:36:31.502Z,2.53
2018-12-25T08:38:58.678Z,3.40
2018-12-25T08:41:25.846Z,2.70
2018-12-25T08:43:53.038Z,2.23
2018-12-25T08:46:20.202Z,2.07
2018-12-25T08:48:47.386Z,2.20
2018-12-25T08:51:14.552Z,2.70
2018-12-25T08:53:41.747Z,2.00
2018-12-25T08:56:08.922Z,2.30
2018-12-25T08:58:36.117Z,1.93
2018-12-25T09:01:03.288Z,2.17
2018-12-25T09:03:30.507Z,2.27
2018-12-25T09:05:57.697Z,2.20
2018-12-25T09:08:24.857Z,2.17
2018-12-25T09:10:52.021Z,1.80
2018-12-25T09:13:19.186Z,2.00
2018-12-25T09:15:46.398Z,2.10
2018-12-25T09:18:13.558Z,1.97
2018-12-25T09:20:41.726Z,1.70
2018-12-25T09:23:08.873Z,1.97
2018-12-25T09:25:36.050Z,1.83
2018-12-25T09:28:03.226Z,1.60
2018-12-25T09:30:30.383Z,2.03
2018-12-25T09:32:57.579Z,2.23
2018-12-25T09:35:24.719Z,2.27
2018-12-25T09:37:51.917Z,2.23
2018-12-25T09:40:19.097Z,1.80
2018-12-25T09:42:46.334Z,3.07
2018-12-25T09:45:13.516Z,1.93
2018-12-25T09:47:40.702Z,2.13
2018-12-25T09:50:07.877Z,1.90
2018-12-25T09:52:35.053Z,1.93
2018-12-25T09:55:02.244Z,1.63
2018-12-25T09:57:29.507Z,1.53
2018-12-25T09:59:56.671Z,1.60
2018-12-25T10:02:23.823Z,1.73
2018-12-25T10:04:51.013Z,1.53
2018-12-25T10:07:18.177Z,1.83
2018-12-25T10:09:45.360Z,1.60
2018-12-25T10:12:12.509Z,1.90
2018-12-25T10:14:39.694Z,1.23
2018-12-25T10:17:06.906Z,1.33
2018-12-25T10:19:34.091Z,1.80
2018-12-25T10:22:03.251Z,1.10
2018-12-25T10:24:30.129Z,1.23
2018-12-25T10:26:57.311Z,1.60
2018-12-25T10:29:24.519Z,1.87
2018-12-25T10:31:51.674Z,1.37
2018-12-25T10:34:18.852Z,1.40
2018-12-25T10:36:46.030Z,1.20
2018-12-25T10:39:13.171Z,2.07
2018-12-25T10:41:40.340Z,1.20
2018-12-25T10:44:07.482Z,1.43
2018-12-25T10:46:34.662Z,1.70
2018-12-25T10:49:01.834Z,1.40
2018-12-25T10:51:29.019Z,1.80
2018-12-25T10:53:56.166Z,1.33
2018-12-25T10:56:23.351Z,1.60
2018-12-25T10:58:50.530Z,1.50
2018-12-25T11:01:17.721Z,1.30
2018-12-25T11:03:44.894Z,1.20
2018-12-25T11:06:12.050Z,1.40
2018-12-25T11:08:39.219Z,1.60
2018-12-25T11:11:06.394Z,1.70
2018-12-25T11:13:33.557Z,1.50
2018-12-25T11:16:00.745Z,1.43
2018-12-25T11:18:27.919Z,1.83
2018-12-25T11:20:55.082Z,1.53
2018-12-25T11:23:22.265Z,2.03
2018-12-25T11:25:49.449Z,1.63
2018-12-25T11:28:16.631Z,1.47
2018-12-25T11:30:43.778Z,2.00
2018-12-25T11:33:10.947Z,1.50
2018-12-25T11:35:38.110Z,2.00
2018-12-25T11:38:05.279Z,2.13
2018-12-25T11:40:32.449Z,2.40
2018-12-25T11:42:59.602Z,2.40
2018-12-25T11:45:26.768Z,2.67
2018-12-25T11:47:53.994Z,2.63
2018-12-25T11:50:21.140Z,2.00
2018-12-25T11:52:48.322Z,1.97
2018-12-25T11:55:15.492Z,2.07
2018-12-25T11:57:42.667Z,1.80
2018-12-25T12:00:09.847Z,1.60
2018-12-25T12:02:37.021Z,2.00
2018-12-25T12:05:04.210Z,2.37
2018-12-25T12:07:31.387Z,2.33
2018-12-25T12:09:58.585Z,2.23
2018-12-25T12:12:25.759Z,2.50
2018-12-25T12:14:52.942Z,1.90
2018-12-25T12:17:20.131Z,2.17
2018-12-25T12:19:47.280Z,2.40
2018-12-25T12:22:14.439Z,2.40
2018-12-25T12:24:41.626Z,2.10
2018-12-25T12:27:08.810Z,2.60
2018-12-25T12:29:36.007Z,3.20
2018-12-25T12:32:03.239Z,2.80
2018-12-25T12:34:30.430Z,3.03
2018-12-25T12:36:57.598Z,2.70
2018-12-25T12:39:24.790Z,3.17
2018-12-25T12:41:51.963Z,2.80
2018-12-25T12:44:19.134Z,3.40
2018-12-25T12:46:46.298Z,3.20
2018-12-25T12:49:13.579Z,3.50
2018-12-25T12:51:40.754Z,3.90
2018-12-25T12:54:07.911Z,3.43
2018-12-25T12:56:35.132Z,3.23
2018-12-25T12:59:02.338Z,3.50
2018-12-25T13:01:29.533Z,2.93
2018-12-25T13:03:56.685Z,3.97
2018-12-25T13:06:23.870Z,3.77
2018-12-25T13:08:51.027Z,4.80
2018-12-25T13:11:18.212Z,3.83
2018-12-25T13:13:45.447Z,4.20
2018-12-25T13:16:12.705Z,4.33
2018-12-25T13:18:39.882Z,7.17
2018-12-25T13:21:07.061Z,7.63
2018-12-25T13:23:34.265Z,7.10
2018-12-25T13:26:01.500Z,8.03
2018-12-25T13:28:28.694Z,8.07
2018-12-25T13:30:55.863Z,7.67
2018-12-25T13:33:23.062Z,7.97
2018-12-25T13:35:50.211Z,5.90
2018-12-25T13:38:17.384Z,6.73
2018-12-25T13:40:44.567Z,7.40
2018-12-25T13:43:11.762Z,7.70
2018-12-25T13:45:38.934Z,5.80
2018-12-25T13:48:06.080Z,6.33
2018-12-25T13:50:33.277Z,8.10
2018-12-25T13:53:03.084Z,11.03
2018-12-25T13:55:29.334Z,9.70
2018-12-25T13:57:56.515Z,10.40
2018-12-25T14:00:23.690Z,9.30
2018-12-25T14:02:50.871Z,9.13
2018-12-25T14:05:18.041Z,7.33
2018-12-25T14:07:45.239Z,7.53
2018-12-25T14:10:12.421Z,7.40
2018-12-25T14:12:39.607Z,7.33
2018-12-25T14:15:06.814Z,7.70
2018-12-25T14:17:33.962Z,7.60
2018-12-25T14:20:01.141Z,8.27
2018-12-25T14:22:28.407Z,10.53
2018-12-25T14:24:55.615Z,13.60
2018-12-25T14:27:22.783Z,15.33
2018-12-25T14:29:49.988Z,17.20
2018-12-25T14:32:17.248Z,17.33
2018-12-25T14:34:44.425Z,13.03
2018-12-25T14:37:11.583Z,17.43
2018-12-25T14:39:38.755Z,12.93
2018-12-25T14:42:05.940Z,17.73
2018-12-25T14:44:33.130Z,15.93
2018-12-25T14:47:00.303Z,13.97
2018-12-25T14:49:27.491Z,16.00
2018-12-25T14:51:54.692Z,14.40
2018-12-25T14:54:21.857Z,13.77
2018-12-25T14:56:49.062Z,15.07
2018-12-25T14:59:16.235Z,12.27
2018-12-25T15:01:43.422Z,12.03
2018-12-25T15:04:10.612Z,16.20
2018-12-25T15:06:37.791Z,14.17
2018-12-25T15:09:06.604Z,12.80
2018-12-25T15:11:33.757Z,17.50
2018-12-25T15:14:00.944Z,12.77
2018-12-25T15:16:28.117Z,17.67
2018-12-25T15:18:55.284Z,14.33
2018-12-25T15:21:22.519Z,16.97
2018-12-25T15:23:49.810Z,13.97
2018-12-25T15:26:16.986Z,15.33
2018-12-25T15:28:44.161Z,16.23
2018-12-25T15:31:11.313Z,14.60
2018-12-25T15:33:38.494Z,16.10
2018-12-25T15:36:05.655Z,13.20
2018-12-25T15:38:32.851Z,17.80
2018-12-25T15:41:00.010Z,15.67
2018-12-25T15:43:27.200Z,15.47
2018-12-25T15:45:54.362Z,16.23
2018-12-25T15:48:21.509Z,17.47
2018-12-25T15:50:48.702Z,18.40
2018-12-25T15:53:15.914Z,16.80
2018-12-25T15:55:43.186Z,18.77
2018-12-25T15:58:10.375Z,17.53
2018-12-25T16:00:37.551Z,17.93
2018-12-25T16:03:04.731Z,16.63
2018-12-25T16:05:31.922Z,15.50
2018-12-25T16:07:59.108Z,14.67
2018-12-25T16:10:26.262Z,17.90
2018-12-25T16:12:53.459Z,15.77
2018-12-25T16:15:20.653Z,15.17
2018-12-25T16:17:47.849Z,16.07
2018-12-25T16:20:15.050Z,17.87
2018-12-25T16:22:42.333Z,15.67
2018-12-25T16:25:09.503Z,16.27
2018-12-25T16:27:36.679Z,17.47
2018-12-25T16:30:05.495Z,16.77
2018-12-25T16:32:32.669Z,15.07
2018-12-25T16:34:59.826Z,13.23
2018-12-25T16:37:27.009Z,17.47
2018-12-25T16:39:54.195Z,14.67
2018-12-25T16:42:21.389Z,18.50
2018-12-25T16:44:48.578Z,16.43
2018-12-25T16:47:15.735Z,16.70
2018-12-25T16:49:42.949Z,17.73
2018-12-25T16:52:10.110Z,16.13
2018-12-25T16:54:37.292Z,17.53
2018-12-25T16:57:04.455Z,14.50
2018-12-25T16:59:31.615Z,15.33
2018-12-25T17:01:58.818Z,15.63
2018-12-25T17:04:25.972Z,16.77
2018-12-25T17:06:53.164Z,13.33
2018-12-25T17:09:20.330Z,12.57
2018-12-25T17:11:47.547Z,16.53
2018-12-25T17:14:14.735Z,14.83
2018-12-25T17:16:41.926Z,13.40
2018-12-25T17:19:09.106Z,14.63
2018-12-25T17:21:36.290Z,14.33
2018-12-25T17:24:03.459Z,10.13
2018-12-25T17:26:30.611Z,8.93
2018-12-25T17:28:57.806Z,13.87
2018-12-25T17:31:24.979Z,12.77
2018-12-25T17:33:52.166Z,13.67
2018-12-25T17:36:19.320Z,13.17
2018-12-25T17:38:46.519Z,11.57
2018-12-25T17:41:13.764Z,13.17
2018-12-25T17:43:40.940Z,11.20
2018-12-25T17:46:08.115Z,11.03
2018-12-25T17:48:36.175Z,12.90
2018-12-25T17:51:03.354Z,13.57
2018-12-25T17:53:30.531Z,13.83
2018-12-25T17:55:57.696Z,12.77
2018-12-25T17:58:24.872Z,14.70
2018-12-25T18:00:52.040Z,12.60
2018-12-25T18:03:19.210Z,12.50
2018-12-25T18:05:46.398Z,14.03
2018-12-25T18:08:13.584Z,14.37
2018-12-25T18:10:40.760Z,12.63
2018-12-25T18:13:07.951Z,13.20
2018-12-25T18:15:35.115Z,14.67
2018-12-25T18:18:02.278Z,12.17
2018-12-25T18:20:29.651Z,12.70
2018-12-25T18:22:56.819Z,13.23
2018-12-25T18:25:24.002Z,11.17
2018-12-25T18:27:51.173Z,11.40
2018-12-25T18:30:18.358Z,11.17
2018-12-25T18:32:45.523Z,11.83
2018-12-25T18:35:12.706Z,12.70
2018-12-25T18:37:39.900Z,12.23
2018-12-25T18:40:07.081Z,11.50
2018-12-25T18:42:34.274Z,10.10
2018-12-25T18:45:01.503Z,13.93
2018-12-25T18:47:28.701Z,12.63
2018-12-25T18:49:55.855Z,10.40
2018-12-25T18:52:23.074Z,11.20
2018-12-25T18:54:50.309Z,10.77
2018-12-25T18:57:17.492Z,13.83
2018-12-25T18:59:44.663Z,14.60
2018-12-25T19:02:11.830Z,13.87
2018-12-25T19:04:39.013Z,13.47
2018-12-25T19:07:06.169Z,12.97
2018-12-25T19:09:33.363Z,11.47
2018-12-25T19:12:00.522Z,13.57
2018-12-25T19:14:27.725Z,13.53
2018-12-25T19:16:54.870Z,12.77
2018-12-25T19:19:22.064Z,13.37
2018-12-25T19:21:49.222Z,13.90
2018-12-25T19:24:16.406Z,14.60
2018-12-25T19:26:43.575Z,13.73
2018-12-25T19:29:10.731Z,13.73
2018-12-25T19:31:37.894Z,15.67
2018-12-25T19:34:05.055Z,12.47
2018-12-25T19:36:32.231Z,11.87
2018-12-25T19:38:59.408Z,13.07
2018-12-25T19:41:26.563Z,13.57
2018-12-25T19:43:53.751Z,14.87
2018-12-25T19:46:20.928Z,15.97
2018-12-25T19:48:48.171Z,15.23
2018-12-25T19:51:15.338Z,13.93
2018-12-25T19:53:42.542Z,15.97
2018-12-25T19:56:09.695Z,14.53
2018-12-25T19:58:36.898Z,16.67
2018-12-25T20:01:04.069Z,16.17
2018-12-25T20:03:31.554Z,14.37
2018-12-25T20:06:03.081Z,12.73
2018-12-25T20:08:31.870Z,14.57
2018-12-25T20:11:17.248Z,15.63
2018-12-25T20:13:46.069Z,15.47
2018-12-25T20:16:17.564Z,15.70
2018-12-25T20:18:46.390Z,15.40
2018-12-25T20:21:31.738Z,15.23
2018-12-25T20:24:03.622Z,15.90
2018-12-25T20:26:35.090Z,12.73
2018-12-25T20:29:03.898Z,17.80
2018-12-25T20:31:49.246Z,13.00
2018-12-25T20:34:20.948Z,17.33
2018-12-25T20:36:49.787Z,20.03
2018-12-25T20:39:18.649Z,19.97
2018-12-25T20:41:47.474Z,19.03
2018-12-25T20:44:16.259Z,20.77
2018-12-25T20:47:00.256Z,17.80
2018-12-25T20:49:29.042Z,19.37
2018-12-25T20:52:03.663Z,16.00
2018-12-25T20:54:44.170Z,19.20
2018-12-25T20:57:21.930Z,21.80
2018-12-25T21:00:06.846Z,17.60
2018-12-25T21:02:52.115Z,21.27
2018-12-25T21:05:32.869Z,16.93
2018-12-25T21:08:01.669Z,19.37
2018-12-25T21:10:33.391Z,17.43
2018-12-25T21:13:11.197Z,16.97
2018-12-25T21:15:52.070Z,19.37
2018-12-25T21:18:29.759Z,21.87
2018-12-25T21:21:01.478Z,18.20
2018-12-25T21:23:46.748Z,20.63
2018-12-25T21:26:32.320Z,21.47
2018-12-25T21:28:59.495Z,16.97
2018-12-25T21:31:26.681Z,19.60
2018-12-25T21:33:53.850Z,19.40
2018-12-25T21:36:21.042Z,20.50
2018-12-25T21:38:48.218Z,22.57
2018-12-25T21:41:15.394Z,21.57
2018-12-25T21:43:42.594Z,19.53
2018-12-25T21:46:09.786Z,22.23
2018-12-25T21:48:36.946Z,23.37
2018-12-25T21:51:04.129Z,25.00
2018-12-25T21:53:31.307Z,20.37
2018-12-25T21:56:00.114Z,20.07
2018-12-25T21:58:27.311Z,21.90
2018-12-25T22:00:54.482Z,23.43
2018-12-25T22:03:21.651Z,22.50
2018-12-25T22:05:48.822Z,21.67
2018-12-25T22:08:16.023Z,20.17
2018-12-25T22:10:43.194Z,23.87
2018-12-25T22:13:10.375Z,20.73
2018-12-25T22:15:37.566Z,17.83
2018-12-25T22:18:04.747Z,17.63
2018-12-25T22:20:31.914Z,20.50
2018-12-25T22:22:59.092Z,22.87
2018-12-25T22:25:27.347Z,21.43
2018-12-25T22:27:55.151Z,19.10
2018-12-25T22:30:22.323Z,21.27
2018-12-25T22:32:49.542Z,17.70
2018-12-25T22:35:16.726Z,21.77
2018-12-25T22:37:43.899Z,20.60
2018-12-25T22:40:11.094Z,20.23
2018-12-25T22:42:38.258Z,21.73
2018-12-25T22:45:06.590Z,20.47
2018-12-25T22:47:33.770Z,19.90
2018-12-25T22:50:00.968Z,20.27
2018-12-25T22:52:28.122Z,16.87
2018-12-25T22:54:55.303Z,18.07
2018-12-25T22:57:22.478Z,22.60
2018-12-25T22:59:49.630Z,20.97
2018-12-25T23:02:16.826Z,20.93
2018-12-25T23:04:44.033Z,17.33
2018-12-25T23:07:11.201Z,22.70
2018-12-25T23:09:38.383Z,17.27
2018-12-25T23:12:05.578Z,20.10
2018-12-25T23:14:32.749Z,22.17
2018-12-25T23:16:59.947Z,15.47
2018-12-25T23:19:27.141Z,21.03
2018-12-25T23:21:54.323Z,21.43
2018-12-25T23:24:21.511Z,18.40
2018-12-25T23:26:48.687Z,21.67
2018-12-25T23:29:15.857Z,22.17
2018-12-25T23:31:43.031Z,20.50
2018-12-25T23:34:10.242Z,21.97
2018-12-25T23:36:37.407Z,21.60
2018-12-25T23:39:05.847Z,18.47
2018-12-25T23:41:33.023Z,23.30
2018-12-25T23:44:00.218Z,23.50
2018-12-25T23:46:27.397Z,23.00
2018-12-25T23:48:54.575Z,19.30
2018-12-25T23:51:21.731Z,23.90
2018-12-25T23:53:48.921Z,22.57
2018-12-25T23:56:16.078Z,21.07
2018-12-25T23:58:43.254Z,23.17
